sensor_id;sensor_type;location;lat;lon;timestamp;temperature;humidity
18287;DHT22;9269;50.838;12.094;2022-10-17T00:01:20;19.00;62.40
18287;DHT22;9269;50.838;12.094;2022-10-17T00:03:50;19.00;62.00
18287;DHT22;9269;50.838;12.094;2022-10-17T00:06:18;19.00;61.80
18287;DHT22;9269;50.838;12.094;2022-10-17T00:08:47;19.00;61.60
18287;DHT22;9269;50.838;12.094;2022-10-17T00:11:19;19.00;61.70
18287;DHT22;9269;50.838;12.094;2022-10-17T00:13:49;19.00;61.80
18287;DHT22;9269;50.838;12.094;2022-10-17T00:16:24;18.90;61.80
18287;DHT22;9269;50.838;12.094;2022-10-17T00:18:53;19.00;61.90
18287;DHT22;9269;50.838;12.094;2022-10-17T00:21:22;18.90;61.40
18287;DHT22;9269;50.838;12.094;2022-10-17T00:23:52;18.90;61.60
18287;DHT22;9269;50.838;12.094;2022-10-17T00:26:21;18.90;61.60
18287;DHT22;9269;50.838;12.094;2022-10-17T00:28:51;18.90;61.80
18287;DHT22;9269;50.838;12.094;2022-10-17T00:31:21;18.90;61.90
18287;DHT22;9269;50.838;12.094;2022-10-17T00:33:52;18.80;61.80
18287;DHT22;9269;50.838;12.094;2022-10-17T00:36:22;18.90;62.00
18287;DHT22;9269;50.838;12.094;2022-10-17T00:38:53;18.90;61.90
18287;DHT22;9269;50.838;12.094;2022-10-17T00:41:24;18.90;62.30
18287;DHT22;9269;50.838;12.094;2022-10-17T00:43:58;18.90;62.10
18287;DHT22;9269;50.838;12.094;2022-10-17T00:46:30;18.90;62.10
18287;DHT22;9269;50.838;12.094;2022-10-17T00:49:04;18.80;61.80
18287;DHT22;9269;50.838;12.094;2022-10-17T00:51:39;18.80;61.70
18287;DHT22;9269;50.838;12.094;2022-10-17T00:54:09;18.80;61.70
18287;DHT22;9269;50.838;12.094;2022-10-17T00:56:39;18.80;61.70
18287;DHT22;9269;50.838;12.094;2022-10-17T00:59:11;18.80;61.80
18287;DHT22;9269;50.838;12.094;2022-10-17T01:01:42;18.80;61.90
18287;DHT22;9269;50.838;12.094;2022-10-17T01:04:17;18.70;62.20
18287;DHT22;9269;50.838;12.094;2022-10-17T01:06:46;18.80;61.90
18287;DHT22;9269;50.838;12.094;2022-10-17T01:09:14;18.70;61.80
18287;DHT22;9269;50.838;12.094;2022-10-17T01:11:48;18.80;61.70
18287;DHT22;9269;50.838;12.094;2022-10-17T01:14:25;18.70;62.40
18287;DHT22;9269;50.838;12.094;2022-10-17T01:17:01;18.70;62.60
18287;DHT22;9269;50.838;12.094;2022-10-17T01:19:49;18.80;62.60
18287;DHT22;9269;50.838;12.094;2022-10-17T01:22:24;18.70;62.30
18287;DHT22;9269;50.838;12.094;2022-10-17T01:25:10;18.70;62.20
18287;DHT22;9269;50.838;12.094;2022-10-17T01:27:51;18.70;62.40
18287;DHT22;9269;50.838;12.094;2022-10-17T01:30:41;18.70;62.70
18287;DHT22;9269;50.838;12.094;2022-10-17T01:33:13;18.70;62.60
18287;DHT22;9269;50.838;12.094;2022-10-17T01:35:49;18.70;62.80
18287;DHT22;9269;50.838;12.094;2022-10-17T01:38:21;18.70;62.80
18287;DHT22;9269;50.838;12.094;2022-10-17T01:40:57;18.70;62.70
18287;DHT22;9269;50.838;12.094;2022-10-17T01:43:32;18.70;62.90
18287;DHT22;9269;50.838;12.094;2022-10-17T01:46:06;18.60;62.80
18287;DHT22;9269;50.838;12.094;2022-10-17T01:48:39;18.60;62.90
18287;DHT22;9269;50.838;12.094;2022-10-17T01:51:12;18.60;63.00
18287;DHT22;9269;50.838;12.094;2022-10-17T01:53:46;18.60;62.90
18287;DHT22;9269;50.838;12.094;2022-10-17T01:56:17;18.60;62.90
18287;DHT22;9269;50.838;12.094;2022-10-17T01:58:50;18.60;62.70
18287;DHT22;9269;50.838;12.094;2022-10-17T02:01:21;18.60;62.50
18287;DHT22;9269;50.838;12.094;2022-10-17T02:03:52;18.70;62.70
18287;DHT22;9269;50.838;12.094;2022-10-17T02:06:21;18.50;62.80
18287;DHT22;9269;50.838;12.094;2022-10-17T02:08:50;18.60;62.80
18287;DHT22;9269;50.838;12.094;2022-10-17T02:11:21;18.60;62.60
18287;DHT22;9269;50.838;12.094;2022-10-17T02:14:10;18.50;62.50
18287;DHT22;9269;50.838;12.094;2022-10-17T02:16:50;18.50;62.90
18287;DHT22;9269;50.838;12.094;2022-10-17T02:19:33;18.50;62.70
18287;DHT22;9269;50.838;12.094;2022-10-17T02:22:14;18.50;62.80
18287;DHT22;9269;50.838;12.094;2022-10-17T02:24:48;18.40;62.60
18287;DHT22;9269;50.838;12.094;2022-10-17T02:27:24;18.50;62.60
18287;DHT22;9269;50.838;12.094;2022-10-17T02:30:02;18.50;62.40
18287;DHT22;9269;50.838;12.094;2022-10-17T02:32:40;18.50;62.50
18287;DHT22;9269;50.838;12.094;2022-10-17T02:35:17;18.50;62.10
18287;DHT22;9269;50.838;12.094;2022-10-17T02:37:48;18.40;62.30
18287;DHT22;9269;50.838;12.094;2022-10-17T02:40:20;18.40;62.40
18287;DHT22;9269;50.838;12.094;2022-10-17T02:42:50;18.40;62.70
18287;DHT22;9269;50.838;12.094;2022-10-17T02:45:21;18.40;62.60
18287;DHT22;9269;50.838;12.094;2022-10-17T02:47:56;18.40;63.00
18287;DHT22;9269;50.838;12.094;2022-10-17T02:50:32;18.40;62.70
18287;DHT22;9269;50.838;12.094;2022-10-17T02:53:05;18.40;62.80
18287;DHT22;9269;50.838;12.094;2022-10-17T02:55:41;18.40;62.50
18287;DHT22;9269;50.838;12.094;2022-10-17T02:58:16;18.40;62.10
18287;DHT22;9269;50.838;12.094;2022-10-17T03:00:46;18.30;62.70
18287;DHT22;9269;50.838;12.094;2022-10-17T03:03:21;18.40;62.20
18287;DHT22;9269;50.838;12.094;2022-10-17T03:05:50;18.40;62.10
18287;DHT22;9269;50.838;12.094;2022-10-17T03:08:19;18.40;62.20
18287;DHT22;9269;50.838;12.094;2022-10-17T03:10:49;18.40;62.50
18287;DHT22;9269;50.838;12.094;2022-10-17T03:13:17;18.40;62.40
18287;DHT22;9269;50.838;12.094;2022-10-17T03:15:46;18.40;62.40
18287;DHT22;9269;50.838;12.094;2022-10-17T03:18:15;18.50;62.30
18287;DHT22;9269;50.838;12.094;2022-10-17T03:20:44;18.40;62.10
18287;DHT22;9269;50.838;12.094;2022-10-17T03:23:13;18.40;61.90
18287;DHT22;9269;50.838;12.094;2022-10-17T03:25:41;18.30;62.10
18287;DHT22;9269;50.838;12.094;2022-10-17T03:28:10;18.40;62.40
18287;DHT22;9269;50.838;12.094;2022-10-17T03:30:39;18.50;62.30
18287;DHT22;9269;50.838;12.094;2022-10-17T03:33:07;18.40;62.80
18287;DHT22;9269;50.838;12.094;2022-10-17T03:35:38;18.40;62.50
18287;DHT22;9269;50.838;12.094;2022-10-17T03:38:08;18.30;62.40
18287;DHT22;9269;50.838;12.094;2022-10-17T03:40:37;18.40;62.50
18287;DHT22;9269;50.838;12.094;2022-10-17T03:43:06;18.30;62.40
18287;DHT22;9269;50.838;12.094;2022-10-17T03:45:37;18.40;62.40
18287;DHT22;9269;50.838;12.094;2022-10-17T03:48:06;18.40;62.40
18287;DHT22;9269;50.838;12.094;2022-10-17T03:50:34;18.40;63.00
18287;DHT22;9269;50.838;12.094;2022-10-17T03:53:03;18.40;62.60
18287;DHT22;9269;50.838;12.094;2022-10-17T03:55:33;18.40;62.90
18287;DHT22;9269;50.838;12.094;2022-10-17T03:58:02;18.40;62.80
18287;DHT22;9269;50.838;12.094;2022-10-17T04:00:30;18.40;62.30
18287;DHT22;9269;50.838;12.094;2022-10-17T04:02:59;18.40;62.60
18287;DHT22;9269;50.838;12.094;2022-10-17T04:05:28;18.40;62.50
18287;DHT22;9269;50.838;12.094;2022-10-17T04:07:56;18.40;62.40
18287;DHT22;9269;50.838;12.094;2022-10-17T04:10:31;18.40;62.50
18287;DHT22;9269;50.838;12.094;2022-10-17T04:13:00;18.50;62.60
18287;DHT22;9269;50.838;12.094;2022-10-17T04:15:29;18.40;62.00
18287;DHT22;9269;50.838;12.094;2022-10-17T04:17:57;18.40;62.20
18287;DHT22;9269;50.838;12.094;2022-10-17T04:20:26;18.40;62.40
18287;DHT22;9269;50.838;12.094;2022-10-17T04:22:55;18.40;62.10
18287;DHT22;9269;50.838;12.094;2022-10-17T04:25:23;18.40;62.10
18287;DHT22;9269;50.838;12.094;2022-10-17T04:27:53;18.40;62.00
18287;DHT22;9269;50.838;12.094;2022-10-17T04:30:23;18.30;62.20
18287;DHT22;9269;50.838;12.094;2022-10-17T04:32:52;18.40;62.10
18287;DHT22;9269;50.838;12.094;2022-10-17T04:35:20;18.30;62.20
18287;DHT22;9269;50.838;12.094;2022-10-17T04:37:49;18.30;62.10
18287;DHT22;9269;50.838;12.094;2022-10-17T04:40:20;18.40;61.80
18287;DHT22;9269;50.838;12.094;2022-10-17T04:42:48;18.30;61.70
18287;DHT22;9269;50.838;12.094;2022-10-17T04:45:18;18.30;61.80
18287;DHT22;9269;50.838;12.094;2022-10-17T04:47:50;18.30;61.40
18287;DHT22;9269;50.838;12.094;2022-10-17T04:50:18;18.20;61.30
18287;DHT22;9269;50.838;12.094;2022-10-17T04:52:48;18.20;61.20
18287;DHT22;9269;50.838;12.094;2022-10-17T04:55:17;18.20;61.00
18287;DHT22;9269;50.838;12.094;2022-10-17T04:57:45;18.10;62.40
18287;DHT22;9269;50.838;12.094;2022-10-17T05:00:14;18.20;61.30
18287;DHT22;9269;50.838;12.094;2022-10-17T05:02:42;18.20;61.20
18287;DHT22;9269;50.838;12.094;2022-10-17T05:05:12;18.20;61.00
18287;DHT22;9269;50.838;12.094;2022-10-17T05:07:41;18.10;62.60
18287;DHT22;9269;50.838;12.094;2022-10-17T05:10:09;18.10;62.70
18287;DHT22;9269;50.838;12.094;2022-10-17T05:12:38;18.10;62.90
18287;DHT22;9269;50.838;12.094;2022-10-17T05:15:08;18.10;62.70
18287;DHT22;9269;50.838;12.094;2022-10-17T05:17:37;18.10;62.40
18287;DHT22;9269;50.838;12.094;2022-10-17T05:20:07;18.10;62.40
18287;DHT22;9269;50.838;12.094;2022-10-17T05:22:37;18.10;63.00
18287;DHT22;9269;50.838;12.094;2022-10-17T05:25:08;18.00;62.80
18287;DHT22;9269;50.838;12.094;2022-10-17T05:27:37;18.10;62.40
18287;DHT22;9269;50.838;12.094;2022-10-17T05:30:07;18.00;62.70
18287;DHT22;9269;50.838;12.094;2022-10-17T05:32:35;18.00;62.60
18287;DHT22;9269;50.838;12.094;2022-10-17T05:35:05;18.00;62.80
18287;DHT22;9269;50.838;12.094;2022-10-17T05:37:33;18.10;62.70
18287;DHT22;9269;50.838;12.094;2022-10-17T05:40:05;18.00;63.00
18287;DHT22;9269;50.838;12.094;2022-10-17T05:42:34;18.00;62.60
18287;DHT22;9269;50.838;12.094;2022-10-17T05:45:04;18.00;62.50
18287;DHT22;9269;50.838;12.094;2022-10-17T05:47:32;18.10;62.40
18287;DHT22;9269;50.838;12.094;2022-10-17T05:50:01;17.90;62.40
18287;DHT22;9269;50.838;12.094;2022-10-17T05:52:30;18.00;62.60
18287;DHT22;9269;50.838;12.094;2022-10-17T05:55:07;17.90;62.50
18287;DHT22;9269;50.838;12.094;2022-10-17T05:57:36;17.90;62.50
18287;DHT22;9269;50.838;12.094;2022-10-17T06:00:08;18.00;62.50
18287;DHT22;9269;50.838;12.094;2022-10-17T06:02:37;18.00;62.50
18287;DHT22;9269;50.838;12.094;2022-10-17T06:05:06;18.00;62.20
18287;DHT22;9269;50.838;12.094;2022-10-17T06:07:35;18.00;62.40
18287;DHT22;9269;50.838;12.094;2022-10-17T06:10:05;18.00;62.40
18287;DHT22;9269;50.838;12.094;2022-10-17T06:12:34;18.00;62.40
18287;DHT22;9269;50.838;12.094;2022-10-17T06:15:03;17.90;62.50
18287;DHT22;9269;50.838;12.094;2022-10-17T06:17:32;18.00;62.40
18287;DHT22;9269;50.838;12.094;2022-10-17T06:20:01;18.00;62.70
18287;DHT22;9269;50.838;12.094;2022-10-17T06:22:29;18.10;62.70
18287;DHT22;9269;50.838;12.094;2022-10-17T06:24:58;18.00;62.30
18287;DHT22;9269;50.838;12.094;2022-10-17T06:27:29;18.10;62.30
18287;DHT22;9269;50.838;12.094;2022-10-17T06:29:57;18.00;63.00
18287;DHT22;9269;50.838;12.094;2022-10-17T06:32:26;18.10;62.80
18287;DHT22;9269;50.838;12.094;2022-10-17T06:34:55;18.20;61.70
18287;DHT22;9269;50.838;12.094;2022-10-17T06:37:23;18.20;61.10
18287;DHT22;9269;50.838;12.094;2022-10-17T06:39:53;18.30;61.60
18287;DHT22;9269;50.838;12.094;2022-10-17T06:42:21;18.40;61.30
18287;DHT22;9269;50.838;12.094;2022-10-17T06:44:51;18.30;61.40
18287;DHT22;9269;50.838;12.094;2022-10-17T06:47:20;18.40;61.40
18287;DHT22;9269;50.838;12.094;2022-10-17T06:49:48;18.40;61.60
18287;DHT22;9269;50.838;12.094;2022-10-17T06:52:17;18.50;61.40
18287;DHT22;9269;50.838;12.094;2022-10-17T06:54:45;18.50;61.30
18287;DHT22;9269;50.838;12.094;2022-10-17T06:57:14;18.60;61.10
18287;DHT22;9269;50.838;12.094;2022-10-17T06:59:42;18.60;61.30
18287;DHT22;9269;50.838;12.094;2022-10-17T07:02:12;18.70;61.00
18287;DHT22;9269;50.838;12.094;2022-10-17T07:04:41;18.70;61.20
18287;DHT22;9269;50.838;12.094;2022-10-17T07:07:12;18.70;61.10
18287;DHT22;9269;50.838;12.094;2022-10-17T07:09:41;18.90;61.30
18287;DHT22;9269;50.838;12.094;2022-10-17T07:12:09;18.90;61.20
18287;DHT22;9269;50.838;12.094;2022-10-17T07:14:39;18.90;61.40
18287;DHT22;9269;50.838;12.094;2022-10-17T07:17:08;19.00;61.30
18287;DHT22;9269;50.838;12.094;2022-10-17T07:19:39;19.00;61.10
18287;DHT22;9269;50.838;12.094;2022-10-17T07:22:09;19.10;61.00
18287;DHT22;9269;50.838;12.094;2022-10-17T07:24:37;19.20;61.00
18287;DHT22;9269;50.838;12.094;2022-10-17T07:27:06;19.30;61.00
18287;DHT22;9269;50.838;12.094;2022-10-17T07:29:35;19.40;60.70
18287;DHT22;9269;50.838;12.094;2022-10-17T07:32:04;19.40;61.00
18287;DHT22;9269;50.838;12.094;2022-10-17T07:34:35;19.60;60.70
18287;DHT22;9269;50.838;12.094;2022-10-17T07:37:04;19.70;60.60
18287;DHT22;9269;50.838;12.094;2022-10-17T07:39:33;19.80;60.20
18287;DHT22;9269;50.838;12.094;2022-10-17T07:42:04;19.80;60.40
18287;DHT22;9269;50.838;12.094;2022-10-17T07:44:33;19.90;60.20
18287;DHT22;9269;50.838;12.094;2022-10-17T07:47:02;20.00;59.80
18287;DHT22;9269;50.838;12.094;2022-10-17T07:49:31;20.00;59.80
18287;DHT22;9269;50.838;12.094;2022-10-17T07:51:59;20.10;59.50
18287;DHT22;9269;50.838;12.094;2022-10-17T07:54:29;20.30;59.60
18287;DHT22;9269;50.838;12.094;2022-10-17T07:56:57;20.40;59.70
18287;DHT22;9269;50.838;12.094;2022-10-17T07:59:26;20.40;59.40
18287;DHT22;9269;50.838;12.094;2022-10-17T08:01:54;20.50;59.10
18287;DHT22;9269;50.838;12.094;2022-10-17T08:04:23;20.60;58.90
18287;DHT22;9269;50.838;12.094;2022-10-17T08:06:54;20.80;59.30
18287;DHT22;9269;50.838;12.094;2022-10-17T08:09:45;21.00;57.60
18287;DHT22;9269;50.838;12.094;2022-10-17T08:12:14;21.10;56.90
18287;DHT22;9269;50.838;12.094;2022-10-17T08:14:43;21.20;57.00
18287;DHT22;9269;50.838;12.094;2022-10-17T08:17:11;21.30;56.80
18287;DHT22;9269;50.838;12.094;2022-10-17T08:19:40;21.50;56.30
18287;DHT22;9269;50.838;12.094;2022-10-17T08:22:10;21.60;56.10
18287;DHT22;9269;50.838;12.094;2022-10-17T08:24:39;21.70;55.80
18287;DHT22;9269;50.838;12.094;2022-10-17T08:27:10;21.80;55.50
18287;DHT22;9269;50.838;12.094;2022-10-17T08:29:40;21.90;55.60
18287;DHT22;9269;50.838;12.094;2022-10-17T08:32:09;22.00;55.60
18287;DHT22;9269;50.838;12.094;2022-10-17T08:34:38;22.20;55.70
18287;DHT22;9269;50.838;12.094;2022-10-17T08:37:06;22.30;56.10
18287;DHT22;9269;50.838;12.094;2022-10-17T08:39:35;22.40;55.70
18287;DHT22;9269;50.838;12.094;2022-10-17T08:42:17;22.60;54.90
18287;DHT22;9269;50.838;12.094;2022-10-17T08:44:52;22.60;55.00
18287;DHT22;9269;50.838;12.094;2022-10-17T08:47:28;22.80;54.50
18287;DHT22;9269;50.838;12.094;2022-10-17T08:50:04;22.80;54.70
18287;DHT22;9269;50.838;12.094;2022-10-17T08:52:37;23.00;54.50
18287;DHT22;9269;50.838;12.094;2022-10-17T08:55:13;23.00;53.70
18287;DHT22;9269;50.838;12.094;2022-10-17T08:57:46;23.10;54.30
18287;DHT22;9269;50.838;12.094;2022-10-17T09:00:18;23.20;53.30
18287;DHT22;9269;50.838;12.094;2022-10-17T09:02:57;23.30;52.50
18287;DHT22;9269;50.838;12.094;2022-10-17T09:05:35;23.40;52.10
18287;DHT22;9269;50.838;12.094;2022-10-17T09:08:17;23.60;53.00
18287;DHT22;9269;50.838;12.094;2022-10-17T09:10:55;23.70;52.10
18287;DHT22;9269;50.838;12.094;2022-10-17T09:13:33;23.80;51.40
18287;DHT22;9269;50.838;12.094;2022-10-17T09:16:31;23.90;50.80
18287;DHT22;9269;50.838;12.094;2022-10-17T09:19:03;24.00;51.10
18287;DHT22;9269;50.838;12.094;2022-10-17T09:21:40;24.00;49.70
18287;DHT22;9269;50.838;12.094;2022-10-17T09:24:16;24.10;49.80
18287;DHT22;9269;50.838;12.094;2022-10-17T09:26:45;24.20;49.10
18287;DHT22;9269;50.838;12.094;2022-10-17T09:29:22;24.20;49.00
18287;DHT22;9269;50.838;12.094;2022-10-17T09:31:56;24.40;48.60
18287;DHT22;9269;50.838;12.094;2022-10-17T09:34:28;24.50;48.70
18287;DHT22;9269;50.838;12.094;2022-10-17T09:36:59;24.60;48.50
18287;DHT22;9269;50.838;12.094;2022-10-17T09:39:29;24.70;49.30
18287;DHT22;9269;50.838;12.094;2022-10-17T09:41:59;24.80;48.20
18287;DHT22;9269;50.838;12.094;2022-10-17T09:44:32;24.80;47.20
18287;DHT22;9269;50.838;12.094;2022-10-17T09:47:14;25.00;47.40
18287;DHT22;9269;50.838;12.094;2022-10-17T09:49:46;25.00;47.10
18287;DHT22;9269;50.838;12.094;2022-10-17T09:52:17;25.10;46.30
18287;DHT22;9269;50.838;12.094;2022-10-17T09:54:49;25.10;45.80
18287;DHT22;9269;50.838;12.094;2022-10-17T09:57:20;25.20;45.70
18287;DHT22;9269;50.838;12.094;2022-10-17T09:59:57;25.20;45.00
18287;DHT22;9269;50.838;12.094;2022-10-17T10:02:28;25.20;45.80
18287;DHT22;9269;50.838;12.094;2022-10-17T10:05:00;25.30;45.00
18287;DHT22;9269;50.838;12.094;2022-10-17T10:07:36;25.30;44.40
18287;DHT22;9269;50.838;12.094;2022-10-17T10:10:21;25.40;45.10
18287;DHT22;9269;50.838;12.094;2022-10-17T10:13:03;25.40;44.90
18287;DHT22;9269;50.838;12.094;2022-10-17T10:15:35;25.60;44.90
18287;DHT22;9269;50.838;12.094;2022-10-17T10:18:28;25.70;43.90
18287;DHT22;9269;50.838;12.094;2022-10-17T10:21:05;25.80;45.00
18287;DHT22;9269;50.838;12.094;2022-10-17T10:23:36;25.90;44.40
18287;DHT22;9269;50.838;12.094;2022-10-17T10:26:20;26.00;44.60
18287;DHT22;9269;50.838;12.094;2022-10-17T10:28:56;26.10;43.30
18287;DHT22;9269;50.838;12.094;2022-10-17T10:31:32;26.20;44.60
18287;DHT22;9269;50.838;12.094;2022-10-17T10:34:14;26.30;42.70
18287;DHT22;9269;50.838;12.094;2022-10-17T10:36:50;26.40;41.70
18287;DHT22;9269;50.838;12.094;2022-10-17T10:39:31;26.40;41.80
18287;DHT22;9269;50.838;12.094;2022-10-17T10:42:02;26.50;41.50
18287;DHT22;9269;50.838;12.094;2022-10-17T10:44:33;26.60;42.00
18287;DHT22;9269;50.838;12.094;2022-10-17T10:47:16;26.70;40.70
18287;DHT22;9269;50.838;12.094;2022-10-17T10:49:45;26.70;41.40
18287;DHT22;9269;50.838;12.094;2022-10-17T10:52:20;26.90;41.30
18287;DHT22;9269;50.838;12.094;2022-10-17T10:54:58;26.90;41.50
18287;DHT22;9269;50.838;12.094;2022-10-17T10:57:34;27.10;40.80
18287;DHT22;9269;50.838;12.094;2022-10-17T11:00:11;27.10;40.60
18287;DHT22;9269;50.838;12.094;2022-10-17T11:02:48;27.20;40.40
18287;DHT22;9269;50.838;12.094;2022-10-17T11:05:26;27.20;40.40
18287;DHT22;9269;50.838;12.094;2022-10-17T11:08:04;27.30;38.90
18287;DHT22;9269;50.838;12.094;2022-10-17T11:10:37;27.30;40.30
18287;DHT22;9269;50.838;12.094;2022-10-17T11:13:12;27.50;39.00
18287;DHT22;9269;50.838;12.094;2022-10-17T11:15:47;27.40;38.90
18287;DHT22;9269;50.838;12.094;2022-10-17T11:18:21;27.50;39.10
18287;DHT22;9269;50.838;12.094;2022-10-17T11:20:53;27.50;38.90
18287;DHT22;9269;50.838;12.094;2022-10-17T11:23:27;27.60;38.90
18287;DHT22;9269;50.838;12.094;2022-10-17T11:26:02;27.60;37.70
18287;DHT22;9269;50.838;12.094;2022-10-17T11:28:33;27.70;39.00
18287;DHT22;9269;50.838;12.094;2022-10-17T11:31:05;27.70;38.30
18287;DHT22;9269;50.838;12.094;2022-10-17T11:33:42;27.80;38.60
18287;DHT22;9269;50.838;12.094;2022-10-17T11:36:18;27.70;38.30
18287;DHT22;9269;50.838;12.094;2022-10-17T11:38:51;27.80;37.40
18287;DHT22;9269;50.838;12.094;2022-10-17T11:41:28;27.80;37.30
18287;DHT22;9269;50.838;12.094;2022-10-17T11:44:01;27.90;36.30
18287;DHT22;9269;50.838;12.094;2022-10-17T11:46:33;27.90;36.10
18287;DHT22;9269;50.838;12.094;2022-10-17T11:49:10;28.00;35.40
18287;DHT22;9269;50.838;12.094;2022-10-17T11:51:48;27.90;34.60
18287;DHT22;9269;50.838;12.094;2022-10-17T11:54:32;28.00;34.50
18287;DHT22;9269;50.838;12.094;2022-10-17T11:57:19;28.10;35.20
18287;DHT22;9269;50.838;12.094;2022-10-17T12:00:02;28.10;35.50
18287;DHT22;9269;50.838;12.094;2022-10-17T12:02:36;28.20;34.80
18287;DHT22;9269;50.838;12.094;2022-10-17T12:05:21;28.20;34.80
18287;DHT22;9269;50.838;12.094;2022-10-17T12:07:58;28.20;34.40
18287;DHT22;9269;50.838;12.094;2022-10-17T12:10:36;28.10;34.60
18287;DHT22;9269;50.838;12.094;2022-10-17T12:13:45;28.20;34.20
18287;DHT22;9269;50.838;12.094;2022-10-17T12:16:45;28.20;33.60
18287;DHT22;9269;50.838;12.094;2022-10-17T12:19:24;28.10;34.40
18287;DHT22;9269;50.838;12.094;2022-10-17T12:21:58;28.10;35.10
18287;DHT22;9269;50.838;12.094;2022-10-17T12:24:37;28.10;34.80
18287;DHT22;9269;50.838;12.094;2022-10-17T12:27:21;28.00;34.00
18287;DHT22;9269;50.838;12.094;2022-10-17T12:29:57;28.00;34.60
18287;DHT22;9269;50.838;12.094;2022-10-17T12:32:26;28.00;34.40
18287;DHT22;9269;50.838;12.094;2022-10-17T12:35:19;27.90;34.60
18287;DHT22;9269;50.838;12.094;2022-10-17T12:38:20;27.80;33.90
18287;DHT22;9269;50.838;12.094;2022-10-17T12:40:51;27.70;34.10
18287;DHT22;9269;50.838;12.094;2022-10-17T12:46:48;27.70;34.30
18287;DHT22;9269;50.838;12.094;2022-10-17T12:49:42;27.80;33.90
18287;DHT22;9269;50.838;12.094;2022-10-17T12:55:24;27.90;34.10
18287;DHT22;9269;50.838;12.094;2022-10-17T12:57:56;27.90;34.60
18287;DHT22;9269;50.838;12.094;2022-10-17T13:00:33;27.90;35.20
18287;DHT22;9269;50.838;12.094;2022-10-17T13:03:09;27.90;34.90
18287;DHT22;9269;50.838;12.094;2022-10-17T13:05:41;28.00;34.90
18287;DHT22;9269;50.838;12.094;2022-10-17T13:08:17;27.90;34.20
18287;DHT22;9269;50.838;12.094;2022-10-17T13:10:50;27.90;33.60
18287;DHT22;9269;50.838;12.094;2022-10-17T13:13:22;27.90;34.20
18287;DHT22;9269;50.838;12.094;2022-10-17T13:15:54;27.90;34.90
18287;DHT22;9269;50.838;12.094;2022-10-17T13:18:27;27.90;35.00
18287;DHT22;9269;50.838;12.094;2022-10-17T13:20:58;27.90;34.20
18287;DHT22;9269;50.838;12.094;2022-10-17T13:23:33;27.90;34.60
18287;DHT22;9269;50.838;12.094;2022-10-17T13:26:13;27.90;34.10
18287;DHT22;9269;50.838;12.094;2022-10-17T13:28:42;27.90;33.70
18287;DHT22;9269;50.838;12.094;2022-10-17T13:31:27;27.90;34.10
18287;DHT22;9269;50.838;12.094;2022-10-17T13:33:58;28.00;34.50
18287;DHT22;9269;50.838;12.094;2022-10-17T13:36:27;28.00;34.90
18287;DHT22;9269;50.838;12.094;2022-10-17T13:38:57;28.00;33.50
18287;DHT22;9269;50.838;12.094;2022-10-17T13:41:29;27.90;33.40
18287;DHT22;9269;50.838;12.094;2022-10-17T13:44:09;27.90;33.40
18287;DHT22;9269;50.838;12.094;2022-10-17T13:46:39;28.00;32.70
18287;DHT22;9269;50.838;12.094;2022-10-17T13:49:20;28.00;33.50
18287;DHT22;9269;50.838;12.094;2022-10-17T13:51:54;28.00;33.60
18287;DHT22;9269;50.838;12.094;2022-10-17T13:54:38;28.00;33.90
18287;DHT22;9269;50.838;12.094;2022-10-17T13:57:18;27.90;33.50
18287;DHT22;9269;50.838;12.094;2022-10-17T13:59:49;28.00;32.90
18287;DHT22;9269;50.838;12.094;2022-10-17T14:02:20;28.00;33.00
18287;DHT22;9269;50.838;12.094;2022-10-17T14:04:59;27.90;32.70
18287;DHT22;9269;50.838;12.094;2022-10-17T14:07:49;28.00;33.20
18287;DHT22;9269;50.838;12.094;2022-10-17T14:10:39;28.00;33.70
18287;DHT22;9269;50.838;12.094;2022-10-17T14:13:20;28.00;33.80
18287;DHT22;9269;50.838;12.094;2022-10-17T14:15:50;28.00;34.40
18287;DHT22;9269;50.838;12.094;2022-10-17T14:18:22;28.10;34.70
18287;DHT22;9269;50.838;12.094;2022-10-17T14:21:01;28.00;33.40
18287;DHT22;9269;50.838;12.094;2022-10-17T14:23:51;28.10;34.40
18287;DHT22;9269;50.838;12.094;2022-10-17T14:26:21;28.10;33.90
18287;DHT22;9269;50.838;12.094;2022-10-17T14:29:04;28.00;34.00
18287;DHT22;9269;50.838;12.094;2022-10-17T14:31:34;27.90;34.00
18287;DHT22;9269;50.838;12.094;2022-10-17T14:34:04;27.80;34.20
18287;DHT22;9269;50.838;12.094;2022-10-17T14:36:36;27.70;33.90
18287;DHT22;9269;50.838;12.094;2022-10-17T14:39:07;27.60;34.60
18287;DHT22;9269;50.838;12.094;2022-10-17T14:41:43;27.60;34.70
18287;DHT22;9269;50.838;12.094;2022-10-17T14:44:19;27.50;35.00
18287;DHT22;9269;50.838;12.094;2022-10-17T14:47:06;27.40;34.50
18287;DHT22;9269;50.838;12.094;2022-10-17T14:50:05;27.40;34.60
18287;DHT22;9269;50.838;12.094;2022-10-17T14:52:34;27.40;35.00
18287;DHT22;9269;50.838;12.094;2022-10-17T14:55:21;27.20;35.20
18287;DHT22;9269;50.838;12.094;2022-10-17T14:57:50;27.10;34.70
18287;DHT22;9269;50.838;12.094;2022-10-17T15:00:21;27.00;34.60
18287;DHT22;9269;50.838;12.094;2022-10-17T15:02:50;27.00;35.40
18287;DHT22;9269;50.838;12.094;2022-10-17T15:05:19;26.80;35.30
18287;DHT22;9269;50.838;12.094;2022-10-17T15:07:49;26.80;35.60
18287;DHT22;9269;50.838;12.094;2022-10-17T15:10:33;26.70;35.50
18287;DHT22;9269;50.838;12.094;2022-10-17T15:13:02;26.70;35.40
18287;DHT22;9269;50.838;12.094;2022-10-17T15:15:52;26.50;35.30
18287;DHT22;9269;50.838;12.094;2022-10-17T15:18:20;26.40;35.40
18287;DHT22;9269;50.838;12.094;2022-10-17T15:20:49;26.40;35.50
18287;DHT22;9269;50.838;12.094;2022-10-17T15:23:32;26.20;36.90
18287;DHT22;9269;50.838;12.094;2022-10-17T15:26:01;26.20;36.80
18287;DHT22;9269;50.838;12.094;2022-10-17T15:28:30;26.10;36.80
18287;DHT22;9269;50.838;12.094;2022-10-17T15:31:03;26.10;37.10
18287;DHT22;9269;50.838;12.094;2022-10-17T15:33:32;26.00;37.30
18287;DHT22;9269;50.838;12.094;2022-10-17T15:36:01;25.90;37.30
18287;DHT22;9269;50.838;12.094;2022-10-17T15:38:29;25.80;37.40
18287;DHT22;9269;50.838;12.094;2022-10-17T15:40:57;25.80;36.80
18287;DHT22;9269;50.838;12.094;2022-10-17T15:43:27;25.70;36.50
18287;DHT22;9269;50.838;12.094;2022-10-17T15:45:55;25.70;37.30
18287;DHT22;9269;50.838;12.094;2022-10-17T15:48:28;25.60;36.70
18287;DHT22;9269;50.838;12.094;2022-10-17T15:50:58;25.50;36.60
18287;DHT22;9269;50.838;12.094;2022-10-17T15:53:26;25.40;37.20
18287;DHT22;9269;50.838;12.094;2022-10-17T15:55:55;25.30;37.20
18287;DHT22;9269;50.838;12.094;2022-10-17T15:58:24;25.30;37.60
18287;DHT22;9269;50.838;12.094;2022-10-17T16:00:54;25.30;37.40
18287;DHT22;9269;50.838;12.094;2022-10-17T16:03:24;25.10;37.70
18287;DHT22;9269;50.838;12.094;2022-10-17T16:05:54;25.00;37.70
18287;DHT22;9269;50.838;12.094;2022-10-17T16:08:23;25.00;38.10
18287;DHT22;9269;50.838;12.094;2022-10-17T16:10:52;24.80;38.00
18287;DHT22;9269;50.838;12.094;2022-10-17T16:13:23;24.80;38.00